Time;durP1;ratioP1;P1;durP2;ratioP2;P2;SDS_P1;SDS_P2;PMS_P1;PMS_P2;Temp;Humidity;BMP_temperature;BMP_pressure;BME280_temperature;BME280_humidity;BME280_pressure;Samples;Min_cycle;Max_cycle;Signal;HPM_P1;HPM_P2
2021/06/27 00:02:03;;;;;;;12.98;11.75;;;18.30;99.90;;;;;;5060665;28;20117;-79
2021/06/27 00:04:28;;;;;;;13.80;12.57;;;18.30;1.00;;;;;;5067002;28;20032;-79
2021/06/27 00:06:54;;;;;;;13.20;12.00;;;18.20;1.00;;;;;;5063846;28;20538;-78
2021/06/27 00:09:19;;;;;;;13.00;11.68;;;18.20;1.00;;;;;;5062929;28;20475;-78
2021/06/27 00:11:45;;;;;;;12.52;10.85;;;18.20;1.00;;;;;;5062199;28;20081;-78
2021/06/27 00:14:11;;;;;;;12.95;11.75;;;18.20;1.00;;;;;;5069047;28;20020;-79
2021/06/27 00:16:37;;;;;;;12.88;11.70;;;18.20;1.00;;;;;;5062575;28;20039;-78
2021/06/27 00:19:04;;;;;;;14.23;12.57;;;18.10;1.00;;;;;;5050247;28;20048;-78
2021/06/27 00:21:30;;;;;;;13.07;11.80;;;18.10;1.00;;;;;;5054637;28;20040;-79
2021/06/27 00:23:55;;;;;;;13.63;12.43;;;18.00;1.00;;;;;;5071360;28;20016;-78
2021/06/27 00:26:23;;;;;;;14.65;11.35;;;18.00;1.00;;;;;;5054326;28;20494;-78
2021/06/27 00:28:50;;;;;;;12.85;11.60;;;18.00;1.00;;;;;;5054861;28;20047;-78
2021/06/27 00:31:16;;;;;;;13.43;12.13;;;17.90;1.00;;;;;;5062229;28;20044;-78
2021/06/27 00:33:42;;;;;;;11.85;10.75;;;17.80;1.00;;;;;;5055660;28;20037;-78
2021/06/27 00:36:08;;;;;;;11.82;10.73;;;17.80;1.00;;;;;;5057741;28;20032;-78
2021/06/27 00:38:35;;;;;;;11.88;10.77;;;17.70;1.00;;;;;;5073602;28;20032;-78
2021/06/27 00:41:00;;;;;;;11.73;10.73;;;17.80;1.00;;;;;;5056703;28;20033;-77
2021/06/27 00:43:28;;;;;;;12.10;10.90;;;17.80;1.00;;;;;;5075118;28;20087;-85
2021/06/27 00:45:54;;;;;;;12.68;11.38;;;17.80;1.00;;;;;;5069268;28;20090;-85
2021/06/27 00:48:20;;;;;;;11.90;10.80;;;17.80;1.00;;;;;;5048941;28;20028;-85
2021/06/27 00:50:50;;;;;;;12.93;11.63;;;17.80;1.00;;;;;;5054502;28;20035;-77
2021/06/27 00:53:16;;;;;;;12.55;11.43;;;17.80;1.00;;;;;;5066156;28;20025;-85
2021/06/27 00:55:44;;;;;;;13.90;12.23;;;17.70;1.00;;;;;;5062629;28;20029;-84
2021/06/27 00:58:09;;;;;;;12.82;10.98;;;17.70;1.00;;;;;;5064918;28;20025;-83
2021/06/27 01:00:39;;;;;;;12.70;11.50;;;17.70;1.00;;;;;;5065560;28;20037;-85
2021/06/27 01:03:06;;;;;;;14.65;11.68;;;17.70;1.00;;;;;;5062974;28;20021;-83
2021/06/27 01:05:36;;;;;;;11.45;10.40;;;17.70;1.00;;;;;;5074294;28;20032;-84
2021/06/27 01:08:03;;;;;;;13.27;12.07;;;17.60;1.00;;;;;;5068964;28;20724;-85
2021/06/27 01:10:29;;;;;;;11.93;10.93;;;17.60;1.00;;;;;;5061795;28;20055;-84
2021/06/27 01:12:56;;;;;;;12.68;11.48;;;17.60;1.00;;;;;;5065548;28;20025;-85
2021/06/27 01:15:23;;;;;;;13.60;12.40;;;17.50;1.00;;;;;;5075925;28;20067;-84
2021/06/27 01:17:50;;;;;;;13.60;12.32;;;17.50;1.00;;;;;;5077859;28;20028;-85
2021/06/27 01:20:21;;;;;;;13.68;12.43;;;17.50;1.00;;;;;;5082385;28;20505;-84
2021/06/27 01:22:48;;;;;;;12.48;11.27;;;17.40;1.00;;;;;;5068064;28;20037;-84
2021/06/27 01:25:17;;;;;;;11.40;10.43;;;17.40;1.00;;;;;;5076280;28;20056;-85
2021/06/27 01:27:43;;;;;;;12.93;11.77;;;17.40;1.00;;;;;;5065131;28;20024;-85
2021/06/27 01:30:11;;;;;;;12.43;11.32;;;17.40;1.00;;;;;;5072782;28;20035;-84
2021/06/27 01:32:45;;;;;;;14.30;10.95;;;17.40;1.00;;;;;;5082551;28;20012;-83
2021/06/27 01:35:14;;;;;;;15.00;11.40;;;17.30;1.00;;;;;;5076206;28;20017;-84
2021/06/27 01:37:41;;;;;;;12.88;11.77;;;17.30;1.00;;;;;;5064304;28;20025;-85
2021/06/27 01:40:07;;;;;;;12.65;11.23;;;17.30;1.00;;;;;;5075811;28;20009;-83
2021/06/27 01:42:34;;;;;;;12.35;10.98;;;17.20;1.00;;;;;;5074271;28;20028;-85
2021/06/27 01:45:11;;;;;;;12.57;11.48;;;17.20;1.00;;;;;;5074909;28;20112;-84
2021/06/27 01:47:36;;;;;;;12.43;11.23;;;17.20;1.00;;;;;;5080692;28;20028;-85
2021/06/27 01:50:04;;;;;;;12.25;10.93;;;17.20;1.00;;;;;;5071612;28;20021;-85
2021/06/27 01:52:30;;;;;;;12.20;11.10;;;17.20;1.00;;;;;;5048997;28;20401;-84
2021/06/27 01:54:56;;;;;;;12.00;10.77;;;17.30;1.00;;;;;;5070932;28;20021;-85
2021/06/27 01:57:22;;;;;;;12.55;11.13;;;17.20;1.00;;;;;;5079442;28;20046;-85
2021/06/27 01:59:49;;;;;;;12.52;11.32;;;17.20;1.00;;;;;;5084275;28;20035;-85
2021/06/27 02:02:16;;;;;;;12.73;11.40;;;17.20;1.00;;;;;;5076417;28;20040;-86
2021/06/27 02:04:42;;;;;;;13.02;11.90;;;17.20;1.00;;;;;;5091936;28;20069;-85
2021/06/27 02:07:08;;;;;;;15.38;11.82;;;17.20;1.00;;;;;;5085461;28;20032;-84
2021/06/27 02:09:34;;;;;;;15.25;12.55;;;17.20;1.00;;;;;;5084111;28;20016;-84
2021/06/27 02:11:59;;;;;;;12.60;11.35;;;17.20;1.00;;;;;;5096720;28;20036;-84
2021/06/27 02:14:25;;;;;;;13.85;12.48;;;17.10;1.00;;;;;;5082188;28;20044;-84
2021/06/27 02:16:51;;;;;;;15.05;13.55;;;17.10;1.00;;;;;;5088666;28;20035;-83
2021/06/27 02:19:16;;;;;;;14.63;13.25;;;17.10;1.00;;;;;;5090232;28;20013;-84
2021/06/27 02:21:42;;;;;;;17.13;15.40;;;17.10;1.00;;;;;;5085697;28;20032;-84
2021/06/27 02:24:08;;;;;;;17.38;15.13;;;17.10;1.00;;;;;;5067863;28;20033;-86
2021/06/27 02:26:34;;;;;;;17.00;14.43;;;17.20;1.00;;;;;;5045189;28;20025;-86
2021/06/27 02:29:01;;;;;;;16.20;14.52;;;17.10;1.00;;;;;;5048464;28;20032;-85
2021/06/27 02:31:30;;;;;;;15.80;14.20;;;17.10;1.00;;;;;;5075987;28;20040;-85
2021/06/27 02:33:57;;;;;;;15.77;14.27;;;17.10;1.00;;;;;;5071443;28;20043;-85
2021/06/27 02:36:22;;;;;;;16.55;14.38;;;17.10;1.00;;;;;;5080314;28;20068;-85
2021/06/27 02:38:49;;;;;;;13.35;12.15;;;17.10;1.00;;;;;;5091447;28;20039;-85
2021/06/27 02:41:15;;;;;;;15.18;13.77;;;17.00;1.00;;;;;;5083249;28;20013;-86
2021/06/27 02:43:42;;;;;;;13.75;12.25;;;17.00;1.00;;;;;;5067261;28;20020;-85
2021/06/27 02:46:08;;;;;;;13.88;12.52;;;17.00;1.00;;;;;;5087502;28;20040;-84
2021/06/27 02:48:34;;;;;;;14.40;12.30;;;17.10;1.00;;;;;;5089617;28;20020;-85
2021/06/27 02:51:00;;;;;;;14.40;13.18;;;17.10;1.00;;;;;;5095774;28;20027;-85
2021/06/27 02:53:26;;;;;;;13.93;12.65;;;17.10;1.00;;;;;;5090509;28;20035;-85
2021/06/27 02:56:07;;;;;;;13.95;12.65;;;17.00;1.00;;;;;;5078648;28;20013;-85
2021/06/27 02:58:41;;;;;;;13.95;12.50;;;17.00;1.00;;;;;;5081753;28;20024;-85
2021/06/27 03:01:07;;;;;;;14.50;13.20;;;16.90;1.00;;;;;;5085906;28;20076;-86
2021/06/27 03:03:33;;;;;;;12.48;11.02;;;16.80;1.00;;;;;;5058450;28;20433;-85
2021/06/27 03:05:59;;;;;;;13.55;12.18;;;16.90;1.00;;;;;;5057181;28;20028;-87
2021/06/27 03:08:25;;;;;;;12.15;11.05;;;16.90;1.00;;;;;;5077888;28;20051;-86
2021/06/27 03:10:51;;;;;;;12.80;11.60;;;17.00;1.00;;;;;;5069644;28;20032;-85
2021/06/27 03:13:16;;;;;;;12.82;11.52;;;17.00;1.00;;;;;;5066067;28;20119;-85
2021/06/27 03:15:42;;;;;;;13.85;11.90;;;16.90;1.00;;;;;;5049515;28;20025;-86
2021/06/27 03:18:08;;;;;;;12.35;11.15;;;16.90;1.00;;;;;;5064500;28;20028;-86
2021/06/27 03:20:33;;;;;;;12.73;11.48;;;17.00;1.00;;;;;;5055125;28;20021;-85
2021/06/27 03:22:59;;;;;;;12.77;11.57;;;17.00;1.00;;;;;;5055819;28;20116;-86
2021/06/27 03:25:29;;;;;;;12.65;11.35;;;17.10;1.00;;;;;;5056647;28;20029;-85
2021/06/27 03:27:54;;;;;;;13.85;12.48;;;17.10;1.00;;;;;;5075275;28;20025;-84
2021/06/27 03:30:21;;;;;;;14.30;12.93;;;17.20;1.00;;;;;;5081796;28;20030;-85
2021/06/27 03:32:47;;;;;;;13.43;12.23;;;17.10;1.00;;;;;;5083185;28;20053;-85
2021/06/27 03:35:12;;;;;;;14.07;12.48;;;17.10;1.00;;;;;;5095795;28;20047;-84
2021/06/27 03:40:23;;;;;;;13.48;12.05;;;17.10;1.00;;;;;;5068710;28;20070;-86
2021/06/27 03:42:49;;;;;;;13.38;12.00;;;17.20;1.00;;;;;;5072117;28;20028;-87
2021/06/27 03:45:16;;;;;;;13.75;12.45;;;17.10;1.00;;;;;;5066908;28;20020;-84
2021/06/27 03:47:42;;;;;;;12.30;11.23;;;17.20;1.00;;;;;;5044323;28;20099;-86
2021/06/27 03:50:08;;;;;;;12.30;11.13;;;17.30;1.00;;;;;;5070806;28;20033;-85
2021/06/27 03:52:35;;;;;;;12.93;11.63;;;17.40;1.00;;;;;;5061177;28;20021;-85
2021/06/27 03:55:00;;;;;;;12.07;10.82;;;17.50;1.00;;;;;;5069535;28;20052;-87
2021/06/27 03:57:26;;;;;;;12.88;10.40;;;17.40;1.00;;;;;;5071172;28;20025;-85
2021/06/27 03:59:52;;;;;;;11.73;10.65;;;17.40;1.00;;;;;;5060430;28;20032;-85
2021/06/27 04:02:18;;;;;;;12.00;10.77;;;17.30;1.00;;;;;;5065438;28;20497;-85
2021/06/27 04:04:43;;;;;;;11.75;10.70;;;17.30;1.00;;;;;;5069009;28;20048;-87
2021/06/27 04:07:09;;;;;;;12.32;9.90;;;17.30;1.00;;;;;;5078656;28;20123;-86
2021/06/27 04:09:35;;;;;;;11.40;10.40;;;17.30;1.00;;;;;;5068144;28;20021;-86
2021/06/27 04:12:00;;;;;;;13.80;10.82;;;17.40;1.00;;;;;;5068296;28;20436;-86
2021/06/27 04:14:26;;;;;;;12.63;11.40;;;17.40;1.00;;;;;;5059633;28;20044;-86
2021/06/27 04:16:52;;;;;;;11.98;10.85;;;17.50;1.00;;;;;;5064127;28;20036;-86
2021/06/27 04:19:17;;;;;;;11.82;10.68;;;17.50;1.00;;;;;;5073042;28;20025;-85
2021/06/27 04:21:43;;;;;;;11.98;10.48;;;17.50;1.00;;;;;;5079397;28;20029;-86
2021/06/27 04:24:08;;;;;;;11.55;10.55;;;17.50;1.00;;;;;;5067547;28;20497;-86
2021/06/27 04:26:34;;;;;;;12.13;10.75;;;17.50;1.00;;;;;;5072380;28;20035;-85
2021/06/27 04:29:00;;;;;;;10.82;9.90;;;17.60;1.00;;;;;;5040961;28;20028;-86
2021/06/27 04:31:25;;;;;;;11.73;10.63;;;17.60;1.00;;;;;;5067708;28;20025;-86
2021/06/27 04:33:51;;;;;;;11.40;10.30;;;17.80;1.00;;;;;;5069268;28;20030;-85
2021/06/27 04:36:18;;;;;;;11.73;10.63;;;17.90;1.00;;;;;;5057953;28;20031;-85
2021/06/27 04:38:44;;;;;;;11.77;10.38;;;18.10;1.00;;;;;;5049870;28;20021;-86
2021/06/27 04:41:10;;;;;;;10.80;9.90;;;18.40;1.00;;;;;;5048263;28;20071;-86
2021/06/27 04:43:35;;;;;;;12.32;11.07;;;18.60;1.00;;;;;;5057687;28;20032;-85
2021/06/27 04:46:01;;;;;;;11.43;10.32;;;18.60;99.90;;;;;;5077505;28;20048;-85
2021/06/27 04:48:27;;;;;;;12.15;11.00;;;18.60;1.00;;;;;;5072988;28;20067;-86
2021/06/27 04:50:53;;;;;;;11.30;10.20;;;18.60;1.00;;;;;;5065150;28;20024;-87
2021/06/27 04:53:19;;;;;;;10.50;9.60;;;18.60;1.00;;;;;;5085397;28;20033;-84
2021/06/27 04:55:45;;;;;;;12.18;11.07;;;18.70;99.90;;;;;;5081118;28;20052;-85
2021/06/27 04:58:11;;;;;;;12.13;11.02;;;18.70;99.90;;;;;;5073920;28;20482;-86
2021/06/27 05:00:37;;;;;;;12.00;10.93;;;18.60;99.90;;;;;;5046161;28;20054;-87
2021/06/27 05:03:04;;;;;;;13.40;10.13;;;18.70;99.90;;;;;;5058886;28;20016;-86
2021/06/27 05:05:30;;;;;;;11.27;10.25;;;18.60;99.90;;;;;;5061143;28;20398;-85
2021/06/27 05:07:56;;;;;;;10.88;9.88;;;18.70;99.90;;;;;;5072046;28;20024;-86
2021/06/27 05:10:21;;;;;;;11.10;10.05;;;18.80;99.90;;;;;;5060013;28;20024;-85
2021/06/27 05:12:47;;;;;;;11.07;10.15;;;18.80;99.90;;;;;;5060498;28;20063;-87
2021/06/27 05:15:13;;;;;;;11.25;10.25;;;19.10;99.90;;;;;;5076258;28;20028;-86
2021/06/27 05:17:39;;;;;;;11.88;10.68;;;19.30;99.90;;;;;;5045396;28;20080;-84
2021/06/27 05:20:05;;;;;;;12.73;10.20;;;19.50;99.90;;;;;;5058500;28;20052;-84
2021/06/27 05:22:31;;;;;;;11.57;10.48;;;20.00;99.90;;;;;;5073586;28;20028;-85
2021/06/27 05:24:56;;;;;;;11.15;10.13;;;20.30;99.90;;;;;;5077110;28;20027;-85
2021/06/27 05:27:22;;;;;;;10.80;9.77;;;20.70;99.90;;;;;;5067915;28;20021;-85
2021/06/27 05:29:47;;;;;;;11.10;10.00;;;21.20;99.90;;;;;;5079313;28;20029;-85
2021/06/27 05:32:14;;;;;;;10.85;9.85;;;22.10;55.40;;;;;;5082908;28;20399;-84
2021/06/27 05:34:39;;;;;;;9.20;8.50;;;22.60;1.00;;;;;;5087212;28;20012;-85
2021/06/27 05:37:05;;;;;;;8.52;7.72;;;23.40;99.90;;;;;;5086533;28;20021;-85
2021/06/27 05:39:30;;;;;;;8.15;7.45;;;24.00;1.00;;;;;;5085989;28;20031;-85
2021/06/27 05:41:56;;;;;;;8.35;7.65;;;23.50;99.90;;;;;;5083681;28;20083;-85
2021/06/27 05:44:22;;;;;;;8.57;7.78;;;23.10;99.90;;;;;;5075961;28;20078;-85
2021/06/27 05:46:48;;;;;;;7.82;7.13;;;23.30;93.50;;;;;;5079901;28;20028;-85
2021/06/27 05:49:14;;;;;;;7.60;7.00;;;23.00;93.20;;;;;;5083914;28;20029;-84
2021/06/27 05:51:41;;;;;;;7.80;7.00;;;22.50;99.90;;;;;;5069862;28;20418;-85
2021/06/27 05:54:07;;;;;;;7.53;6.93;;;22.50;99.90;;;;;;5075433;28;20100;-86
2021/06/27 05:56:33;;;;;;;9.52;8.02;;;22.50;99.90;;;;;;5080926;28;20045;-85
2021/06/27 05:58:59;;;;;;;7.43;6.72;;;23.10;99.90;;;;;;5078519;28;20029;-85
2021/06/27 06:01:25;;;;;;;9.20;6.70;;;23.70;19.30;;;;;;5073550;28;20044;-84
2021/06/27 06:03:50;;;;;;;7.70;6.90;;;23.80;1.00;;;;;;5067615;28;20036;-85
2021/06/27 06:06:16;;;;;;;6.90;6.30;;;23.80;1.00;;;;;;5081793;28;20097;-86
2021/06/27 06:08:43;;;;;;;7.65;6.95;;;23.70;99.90;;;;;;5081028;28;20460;-84
2021/06/27 06:11:13;;;;;;;6.82;6.13;;;23.10;1.00;;;;;;5074788;28;20043;-83
2021/06/27 06:13:39;;;;;;;7.07;6.57;;;23.20;1.00;;;;;;5072109;28;20040;-84
2021/06/27 06:16:06;;;;;;;7.47;6.85;;;23.30;1.00;;;;;;5080191;28;20044;-85
2021/06/27 06:18:32;;;;;;;8.18;7.30;;;23.10;1.00;;;;;;5083025;28;20115;-85
2021/06/27 06:20:58;;;;;;;7.75;7.07;;;23.30;1.00;;;;;;5092788;28;20017;-84
2021/06/27 06:23:24;;;;;;;10.02;6.32;;;23.30;1.00;;;;;;5085502;28;20044;-84
2021/06/27 06:25:50;;;;;;;8.48;6.97;;;23.10;76.70;;;;;;5084525;28;20028;-84
2021/06/27 06:28:16;;;;;;;7.45;6.75;;;24.00;99.90;;;;;;5063634;28;20012;-84
2021/06/27 06:30:42;;;;;;;6.75;6.15;;;23.20;99.90;;;;;;5081439;28;20121;-84
2021/06/27 06:33:10;;;;;;;6.90;6.30;;;22.60;1.00;;;;;;5087211;28;20040;-84
2021/06/27 06:35:40;;;;;;;6.47;5.88;;;22.80;1.00;;;;;;5083501;28;20307;-85
2021/06/27 06:38:06;;;;;;;5.53;5.03;;;22.30;1.00;;;;;;5090012;28;20023;-85
2021/06/27 06:40:32;;;;;;;5.32;4.93;;;22.30;1.00;;;;;;5083878;28;20013;-84
2021/06/27 06:42:59;;;;;;;5.70;4.82;;;22.30;1.00;;;;;;5097757;28;20028;-85
2021/06/27 06:45:25;;;;;;;8.00;4.95;;;22.50;1.00;;;;;;5085117;28;20025;-85
2021/06/27 06:47:51;;;;;;;5.55;4.82;;;22.80;1.00;;;;;;5095347;28;20016;-84
2021/06/27 06:50:17;;;;;;;6.28;5.72;;;22.80;99.90;;;;;;5084170;28;20021;-84
2021/06/27 06:52:42;;;;;;;5.93;5.43;;;22.80;99.90;;;;;;5088713;28;20032;-84
2021/06/27 06:55:08;;;;;;;5.50;5.10;;;23.10;99.90;;;;;;5098183;28;20056;-85
2021/06/27 06:57:34;;;;;;;5.55;5.05;;;23.00;99.90;;;;;;5095754;28;20047;-85
2021/06/27 07:00:00;;;;;;;5.70;5.20;;;22.80;1.00;;;;;;5080998;28;20044;-84
2021/06/27 07:02:25;;;;;;;6.43;5.93;;;22.80;1.00;;;;;;5097276;28;20040;-85
2021/06/27 07:04:51;;;;;;;5.72;5.22;;;23.30;99.90;;;;;;5085334;28;20013;-84
2021/06/27 07:07:17;;;;;;;5.80;5.30;;;23.10;99.90;;;;;;5082125;28;20043;-84
2021/06/27 07:09:42;;;;;;;5.32;4.85;;;23.10;99.90;;;;;;5087919;28;20021;-83
2021/06/27 07:12:09;;;;;;;7.88;4.70;;;23.10;99.90;;;;;;5092359;28;20092;-84
2021/06/27 07:14:34;;;;;;;5.80;4.88;;;23.10;99.90;;;;;;5086605;28;20084;-83
2021/06/27 07:17:00;;;;;;;5.90;5.28;;;23.10;99.90;;;;;;5082680;28;20009;-84
2021/06/27 07:19:25;;;;;;;8.40;5.20;;;22.80;99.90;;;;;;5092332;28;20057;-82
2021/06/27 07:21:51;;;;;;;5.80;5.30;;;23.00;99.90;;;;;;5088491;28;20036;-85
2021/06/27 07:24:17;;;;;;;5.70;5.05;;;23.50;99.90;;;;;;5090974;28;20040;-83
2021/06/27 07:26:43;;;;;;;6.00;5.40;;;23.60;99.90;;;;;;5063635;28;20482;-84
2021/06/27 07:29:09;;;;;;;4.90;4.50;;;23.80;99.90;;;;;;5092666;28;20025;-85
2021/06/27 07:31:35;;;;;;;5.20;4.80;;;24.00;12.70;;;;;;5096063;28;20040;-84
2021/06/27 07:34:00;;;;;;;5.32;4.82;;;23.90;26.50;;;;;;5090384;28;20030;-84
2021/06/27 07:36:26;;;;;;;5.10;4.63;;;24.20;1.00;;;;;;5077600;28;20024;-85
2021/06/27 07:38:52;;;;;;;4.28;3.97;;;24.30;1.00;;;;;;5089459;28;20375;-85
2021/06/27 07:41:17;;;;;;;5.30;4.80;;;24.20;1.00;;;;;;5085523;28;20217;-84
2021/06/27 07:43:43;;;;;;;5.10;4.70;;;24.00;99.90;;;;;;5064094;28;20037;-85
2021/06/27 07:46:09;;;;;;;5.05;4.38;;;23.90;99.90;;;;;;5088488;28;20009;-84
2021/06/27 07:48:34;;;;;;;5.25;4.75;;;23.60;1.00;;;;;;5073713;28;20080;-85
2021/06/27 07:51:00;;;;;;;4.57;4.00;;;24.00;1.00;;;;;;5088305;28;20032;-86
2021/06/27 07:53:26;;;;;;;5.60;4.90;;;24.20;99.90;;;;;;5085894;28;20015;-83
2021/06/27 07:55:51;;;;;;;5.65;5.20;;;24.20;99.90;;;;;;5096289;28;20036;-85
2021/06/27 07:58:17;;;;;;;4.90;4.50;;;24.30;1.00;;;;;;5085495;28;20015;-84
2021/06/27 08:00:43;;;;;;;4.80;4.40;;;24.50;99.90;;;;;;5084437;28;20044;-84
2021/06/27 08:03:09;;;;;;;5.18;4.78;;;24.40;99.90;;;;;;5069721;28;20025;-84
2021/06/27 08:05:34;;;;;;;5.00;4.60;;;24.50;99.90;;;;;;5081625;28;20057;-84
2021/06/27 08:08:00;;;;;;;4.45;4.13;;;24.60;99.90;;;;;;5083637;28;20028;-84
2021/06/27 08:10:26;;;;;;;5.22;4.55;;;24.60;99.90;;;;;;5059862;28;20028;-84
2021/06/27 08:12:52;;;;;;;4.82;4.47;;;24.60;99.90;;;;;;5075701;28;20025;-84
2021/06/27 08:15:18;;;;;;;4.70;4.30;;;24.70;94.10;;;;;;5079753;28;20490;-85
2021/06/27 08:17:46;;;;;;;4.60;4.22;;;24.70;86.10;;;;;;5069876;28;20054;-86
2021/06/27 08:20:12;;;;;;;4.97;4.57;;;24.60;99.90;;;;;;5080992;28;20024;-85
2021/06/27 08:22:37;;;;;;;4.90;4.50;;;24.70;99.90;;;;;;5069736;28;20028;-86
2021/06/27 08:25:04;;;;;;;4.50;4.18;;;25.10;23.60;;;;;;5080624;28;20024;-85
2021/06/27 08:27:29;;;;;;;4.60;4.30;;;25.30;1.00;;;;;;5081216;28;20031;-85
2021/06/27 08:29:57;;;;;;;4.22;3.83;;;25.30;99.90;;;;;;5073993;28;20080;-86
2021/06/27 08:32:23;;;;;;;4.47;4.07;;;25.50;99.90;;;;;;5081063;28;20028;-85
2021/06/27 08:34:48;;;;;;;4.30;4.00;;;25.40;12.60;;;;;;5069712;28;20517;-85
2021/06/27 08:37:14;;;;;;;4.03;3.72;;;25.30;73.00;;;;;;5064249;28;20017;-84
2021/06/27 08:39:40;;;;;;;4.00;3.63;;;25.80;99.90;;;;;;5064072;28;20063;-85
2021/06/27 08:42:06;;;;;;;3.33;3.13;;;25.90;99.90;;;;;;5066996;28;20393;-85
2021/06/27 08:44:34;;;;;;;6.38;3.90;;;25.80;99.90;;;;;;5069362;28;20028;-86
2021/06/27 08:47:02;;;;;;;4.15;3.70;;;25.70;99.90;;;;;;5070908;28;20027;-84
2021/06/27 08:49:28;;;;;;;3.95;3.60;;;26.20;99.90;;;;;;5071904;28;20086;-88
2021/06/27 08:51:55;;;;;;;3.67;3.38;;;26.30;1.00;;;;;;5073770;28;20486;-86
2021/06/27 08:54:21;;;;;;;3.08;2.88;;;26.30;99.90;;;;;;5072074;28;20017;-86
2021/06/27 08:56:47;;;;;;;4.15;3.80;;;26.20;99.90;;;;;;5078749;28;20024;-77
2021/06/27 08:59:13;;;;;;;4.15;3.85;;;26.30;99.90;;;;;;5065782;28;20063;-83
2021/06/27 09:01:38;;;;;;;3.80;3.47;;;26.20;99.90;;;;;;5072450;28;20029;-84
2021/06/27 09:04:04;;;;;;;3.63;2.97;;;26.30;24.00;;;;;;5077113;28;20028;-84
2021/06/27 09:06:32;;;;;;;4.50;3.17;;;26.50;1.00;;;;;;5076128;28;20080;-83
2021/06/27 09:09:14;;;;;;;3.60;3.35;;;26.30;1.00;;;;;;5065060;28;20597;-84
2021/06/27 09:11:54;;;;;;;3.30;3.10;;;26.60;1.00;;;;;;5081991;28;20024;-83
2021/06/27 09:14:35;;;;;;;5.18;3.40;;;26.80;1.00;;;;;;5082545;28;20053;-84
2021/06/27 09:17:19;;;;;;;3.65;3.35;;;26.90;1.00;;;;;;5063426;28;20021;-83
2021/06/27 09:20:07;;;;;;;3.17;2.97;;;26.90;99.90;;;;;;5071424;28;20027;-84
2021/06/27 09:22:42;;;;;;;4.30;4.00;;;26.70;99.90;;;;;;5062893;28;20028;-81
2021/06/27 09:25:20;;;;;;;3.10;2.90;;;26.80;99.90;;;;;;5069833;28;20028;-83
2021/06/27 09:27:56;;;;;;;3.33;3.13;;;26.90;99.90;;;;;;5053583;28;20031;-75
2021/06/27 09:30:22;;;;;;;3.10;2.72;;;27.00;99.90;;;;;;5069592;28;20035;-76
2021/06/27 09:32:55;;;;;;;3.20;2.90;;;27.20;99.90;;;;;;5058130;28;20300;-75
2021/06/27 09:36:00;;;;;;;3.00;2.80;;;27.20;99.90;;;;;;5052853;28;20024;-75
2021/06/27 09:38:38;;;;;;;3.20;3.00;;;27.30;99.90;;;;;;5069171;28;20428;-78
2021/06/27 09:41:03;;;;;;;2.17;2.00;;;27.40;89.90;;;;;;5068147;28;20100;-76
2021/06/27 09:43:32;;;;;;;2.50;2.30;;;27.40;1.00;;;;;;5053468;28;20075;-74
2021/06/27 09:46:00;;;;;;;2.53;2.33;;;27.20;1.00;;;;;;5062006;28;20068;-76
2021/06/27 09:48:27;;;;;;;2.72;2.53;;;27.40;1.00;;;;;;5038682;28;20078;-75
2021/06/27 09:50:53;;;;;;;3.78;2.20;;;27.40;99.90;;;;;;5055059;28;20032;-75
2021/06/27 09:53:36;;;;;;;2.00;1.90;;;27.50;99.90;;;;;;5053320;28;20075;-75
2021/06/27 09:56:04;;;;;;;2.70;1.77;;;27.70;99.90;;;;;;5067842;28;20040;-75
2021/06/27 09:58:30;;;;;;;2.30;2.10;;;27.70;99.90;;;;;;5059616;28;20018;-76
2021/06/27 10:00:57;;;;;;;2.00;1.90;;;27.90;99.90;;;;;;5054535;28;20147;-74
2021/06/27 10:03:24;;;;;;;2.47;2.28;;;28.00;99.90;;;;;;5064973;28;20024;-74
2021/06/27 10:05:49;;;;;;;2.45;2.15;;;28.00;99.90;;;;;;5055491;28;20025;-75
2021/06/27 10:08:28;;;;;;;4.00;2.00;;;27.80;99.90;;;;;;5061123;28;20400;-76
2021/06/27 10:11:08;;;;;;;1.70;1.60;;;28.00;99.90;;;;;;5065758;28;20036;-75
2021/06/27 10:13:34;;;;;;;1.60;1.50;;;28.30;89.90;;;;;;5071230;28;20024;-77
2021/06/27 10:16:00;;;;;;;2.10;1.80;;;28.10;73.30;;;;;;5059148;28;20890;-76
2021/06/27 10:18:26;;;;;;;2.70;2.50;;;28.50;46.20;;;;;;5066030;28;20062;-75
2021/06/27 10:20:53;;;;;;;1.60;1.50;;;28.60;39.60;;;;;;5047161;28;20500;-75
2021/06/27 10:23:19;;;;;;;2.97;2.00;;;28.70;19.20;;;;;;5044640;28;20509;-75
2021/06/27 10:25:45;;;;;;;1.77;1.67;;;28.80;1.00;;;;;;5066900;28;20021;-75
2021/06/27 10:28:13;;;;;;;1.55;1.45;;;28.60;1.00;;;;;;5062148;28;20036;-76
2021/06/27 10:30:39;;;;;;;1.58;1.48;;;29.00;1.00;;;;;;5054703;28;20131;-76
2021/06/27 10:33:04;;;;;;;1.48;1.38;;;28.80;1.00;;;;;;5075959;28;20020;-78
2021/06/27 10:35:30;;;;;;;1.98;1.77;;;28.60;1.00;;;;;;5073899;28;20025;-77
2021/06/27 10:37:58;;;;;;;1.85;1.50;;;28.90;1.00;;;;;;5075237;28;20017;-75
2021/06/27 10:40:24;;;;;;;1.98;1.42;;;28.60;1.00;;;;;;5074169;28;20111;-77
2021/06/27 10:42:49;;;;;;;2.45;1.50;;;28.80;1.00;;;;;;5070822;28;20103;-76
2021/06/27 10:45:17;;;;;;;1.70;1.33;;;29.40;1.00;;;;;;5075245;28;20489;-76
2021/06/27 10:47:42;;;;;;;3.47;1.40;;;29.30;1.00;;;;;;5057844;28;20074;-76
2021/06/27 10:50:10;;;;;;;1.65;1.55;;;29.70;99.90;;;;;;5075297;28;20028;-76
2021/06/27 10:52:50;;;;;;;1.55;1.45;;;29.70;99.90;;;;;;5075324;28;20020;-76
2021/06/27 10:55:26;;;;;;;1.40;1.30;;;29.20;99.90;;;;;;5057597;28;20063;-77
2021/06/27 10:58:05;;;;;;;2.58;1.33;;;29.10;99.90;;;;;;5075634;28;20075;-77
2021/06/27 11:00:54;;;;;;;1.70;1.60;;;29.30;99.90;;;;;;5059189;28;20040;-76
2021/06/27 11:03:38;;;;;;;1.42;1.33;;;29.60;99.90;;;;;;5076005;28;20139;-76
2021/06/27 11:06:17;;;;;;;1.40;1.30;;;29.90;99.90;;;;;;5075466;28;20020;-78
2021/06/27 11:08:49;;;;;;;1.48;1.38;;;29.40;99.90;;;;;;5076107;28;20020;-75
2021/06/27 11:11:20;;;;;;;1.67;1.20;;;29.60;99.90;;;;;;5075980;28;20099;-76
2021/06/27 11:14:11;;;;;;;1.55;1.45;;;29.80;99.90;;;;;;5075668;28;20094;-75
2021/06/27 11:16:59;;;;;;;1.60;1.50;;;30.70;99.90;;;;;;5056427;28;20027;-77
2021/06/27 11:19:30;;;;;;;1.50;1.38;;;31.10;99.90;;;;;;5074521;28;20047;-77
2021/06/27 11:22:19;;;;;;;1.92;1.70;;;30.90;99.90;;;;;;5073805;28;20514;-76
2021/06/27 11:24:47;;;;;;;1.60;1.50;;;30.40;99.90;;;;;;5074833;28;20036;-77
2021/06/27 11:27:29;;;;;;;1.45;1.35;;;30.30;99.90;;;;;;5074638;28;20035;-76
2021/06/27 11:29:55;;;;;;;1.42;1.20;;;30.30;99.90;;;;;;5056421;28;20024;-76
2021/06/27 11:32:23;;;;;;;1.40;1.30;;;29.90;99.90;;;;;;5074408;28;20420;-76
2021/06/27 11:34:54;;;;;;;1.67;1.58;;;30.00;99.90;;;;;;5074205;28;20456;-76
2021/06/27 11:37:19;;;;;;;1.60;1.50;;;29.80;99.90;;;;;;5074256;28;20020;-78
2021/06/27 11:39:47;;;;;;;1.63;1.17;;;29.60;99.90;;;;;;5074351;28;20555;-77
2021/06/27 11:42:28;;;;;;;1.67;1.20;;;30.00;99.90;;;;;;5074112;28;20028;-76
2021/06/27 11:47:35;;;;;;;1.50;1.40;;;30.40;99.90;;;;;;5073864;28;20067;-76
2021/06/27 11:50:22;;;;;;;2.20;1.90;;;30.50;99.90;;;;;;5074047;28;20435;-77
2021/06/27 11:52:58;;;;;;;1.50;1.40;;;30.10;99.90;;;;;;5074106;28;20105;-77
2021/06/27 11:55:28;;;;;;;1.63;1.52;;;30.10;99.90;;;;;;5056215;28;20029;-75
2021/06/27 11:57:54;;;;;;;1.33;1.23;;;29.80;99.90;;;;;;5073725;28;20420;-76
2021/06/27 12:00:21;;;;;;;1.92;1.73;;;29.80;99.90;;;;;;5072990;28;20028;-77
2021/06/27 12:02:46;;;;;;;1.80;1.70;;;29.90;99.90;;;;;;5074615;28;20114;-76
2021/06/27 12:05:15;;;;;;;2.08;1.60;;;29.50;99.90;;;;;;5073022;28;20021;-76
2021/06/27 12:07:43;;;;;;;1.83;1.48;;;29.40;99.90;;;;;;5055688;28;20040;-75
2021/06/27 12:10:19;;;;;;;1.55;1.45;;;29.40;99.90;;;;;;5073986;28;20677;-76
2021/06/27 12:12:59;;;;;;;1.75;1.65;;;29.50;99.90;;;;;;5073695;28;20032;-75
2021/06/27 12:15:26;;;;;;;1.50;1.40;;;29.50;99.90;;;;;;5056735;28;20039;-76
2021/06/27 12:17:59;;;;;;;1.60;1.50;;;29.50;99.90;;;;;;5073661;28;20068;-76
2021/06/27 12:20:26;;;;;;;1.40;1.30;;;29.60;99.90;;;;;;5073512;28;20021;-77
2021/06/27 12:22:59;;;;;;;1.40;1.30;;;29.80;99.90;;;;;;5073632;28;20105;-76
2021/06/27 12:25:25;;;;;;;1.50;1.40;;;29.90;99.90;;;;;;5073536;28;20049;-76
2021/06/27 12:27:52;;;;;;;1.60;1.25;;;29.90;99.90;;;;;;5055553;28;20024;-76
2021/06/27 12:30:18;;;;;;;2.30;1.60;;;29.80;99.90;;;;;;5073276;28;20016;-76
2021/06/27 12:33:24;;;;;;;1.35;1.25;;;30.00;99.90;;;;;;5073101;28;20499;-76
2021/06/27 12:36:02;;;;;;;1.50;1.40;;;29.80;99.90;;;;;;5053119;28;20124;-76
2021/06/27 12:38:29;;;;;;;1.25;1.13;;;29.50;99.90;;;;;;5055310;28;20035;-77
2021/06/27 12:40:59;;;;;;;1.35;1.25;;;29.60;99.90;;;;;;5072813;28;20366;-76
2021/06/27 12:43:31;;;;;;;1.40;1.30;;;29.90;99.90;;;;;;5073371;28;20017;-79
2021/06/27 12:46:18;;;;;;;3.22;1.20;;;30.00;99.90;;;;;;5072922;28;20025;-76
2021/06/27 12:48:46;;;;;;;1.20;1.10;;;29.90;99.90;;;;;;5062979;28;20052;-76
2021/06/27 12:51:30;;;;;;;1.17;1.08;;;30.30;99.90;;;;;;5052564;28;20024;-77
2021/06/27 12:54:09;;;;;;;1.25;1.10;;;30.50;99.90;;;;;;5052893;28;20036;-78